首页
METAR-TAF:

METAR-TAF

机场 :

拉紹德封, 瑞士

纬度: 47-05-03N, 经度: 006-47-37E, 海拔: 1027米

当前天气观测

该预报发布于22分钟前的16:20 UTC
风速10节,风向西南,在西之间变化
温度 9°C
湿度 93%
气压 1005 hPa
能见度10公里或以上
多云层高于1100英尺

METAR: LSGC 051620Z AUTO 23010KT 170V260 9999 BKN011 09/08 Q1005

时间: 18:42 (16:42 UTC)

预报

该预报发布于2小时和17分钟前的14:25 UTC
预报有效从05日的 15点(UTC)到 05日的 24点(UTC)
风速13节,风向西转西南
能见度10公里或以上
少量云层高于1000英尺
多云层高于3000英尺

TAF: LSGC 051425Z 0515/0524 25013KT 9999 FEW010 BKN030

超过4000个机场的气象观测和天气预报(METAR&TAF报告)。

可查询的气象台以黄色和红色小点在地图上表示。

将鼠标移到小点上方,可查看气象台名称。

然后点击查看天气观测和预报。

如需切换地图:点击带黑十字的绿色按钮放大地图;点击带横线的绿色按钮缩小地图;或者点击绿色箭头查看邻近地区的地图。


METAR-TAF: